Time;durP1;ratioP1;P1;durP2;ratioP2;P2;SDS_P1;SDS_P2;PMS_P1;PMS_P2;Temp;Humidity;BMP_temperature;BMP_pressure;BME280_temperature;BME280_humidity;BME280_pressure;Samples;Min_cycle;Max_cycle;Signal;HPM_P1;HPM_P2
2022/07/25 00:00:30;;;;;;;1.98;1.88;;;22.50;99.90;;;;;;4116390;28;20450;-63
2022/07/25 00:02:33;;;;;;;2.05;1.85;;;22.40;99.90;;;;;;4125882;28;20492;-62
2022/07/25 00:04:35;;;;;;;2.15;2.05;;;22.40;99.90;;;;;;4129329;28;20054;-62
2022/07/25 00:06:39;;;;;;;2.58;1.85;;;22.30;99.90;;;;;;4125695;28;20035;-63
2022/07/25 00:08:43;;;;;;;2.00;1.90;;;22.30;99.90;;;;;;4115396;28;20351;-62
2022/07/25 00:10:46;;;;;;;3.25;1.55;;;22.20;99.90;;;;;;4114222;28;20050;-63
2022/07/25 00:12:54;;;;;;;2.47;2.28;;;22.30;99.90;;;;;;4126340;28;20046;-62
2022/07/25 00:14:57;;;;;;;1.55;1.50;;;22.00;99.90;;;;;;4123060;28;20039;-63
2022/07/25 00:17:00;;;;;;;3.45;3.15;;;21.90;99.90;;;;;;4115192;28;20042;-62
2022/07/25 00:19:02;;;;;;;2.05;1.95;;;21.70;99.90;;;;;;4118015;28;20070;-62
2022/07/25 00:21:04;;;;;;;2.58;2.47;;;21.70;99.90;;;;;;4114592;28;20047;-63
2022/07/25 00:23:06;;;;;;;;;;;21.60;99.90;;;;;;4119122;28;20527;-63
2022/07/25 00:25:08;;;;;;;3.23;2.30;;;21.50;99.90;;;;;;4129912;28;19922;-62
2022/07/25 00:27:10;;;;;;;;;;;21.60;99.90;;;;;;4121545;28;20042;-63
2022/07/25 00:29:12;;;;;;;3.90;2.00;;;21.70;99.90;;;;;;4127877;28;19976;-62
2022/07/25 00:31:14;;;;;;;6.38;2.00;;;21.70;99.90;;;;;;4121510;28;20042;-63
2022/07/25 00:33:16;;;;;;;;;;;21.60;99.90;;;;;;4123729;28;20050;-63
2022/07/25 00:35:18;;;;;;;2.80;2.70;;;21.50;99.90;;;;;;4121415;28;19925;-63
2022/07/25 00:37:20;;;;;;;2.22;2.10;;;21.40;99.90;;;;;;4114166;28;20125;-63
2022/07/25 00:39:23;;;;;;;2.33;2.13;;;21.30;99.90;;;;;;4122001;28;20074;-63
2022/07/25 00:41:25;;;;;;;2.75;2.55;;;21.30;99.90;;;;;;4124253;28;20069;-63
2022/07/25 00:43:27;;;;;;;2.38;2.17;;;21.20;99.90;;;;;;4123754;28;20425;-63
2022/07/25 00:45:29;;;;;;;2.08;1.90;;;21.20;99.90;;;;;;4119601;28;20047;-63
2022/07/25 00:47:31;;;;;;;2.50;2.35;;;21.30;99.90;;;;;;4122178;28;20390;-63
2022/07/25 00:49:33;;;;;;;3.70;3.40;;;21.30;99.90;;;;;;4121168;28;20037;-62
2022/07/25 00:51:35;;;;;;;;;;;21.30;99.90;;;;;;4122234;28;20046;-60
2022/07/25 00:53:38;;;;;;;4.03;2.50;;;21.40;99.90;;;;;;4124159;28;19980;-62
2022/07/25 00:55:40;;;;;;;3.13;3.03;;;21.30;99.90;;;;;;4113761;28;20062;-63
2022/07/25 00:57:42;;;;;;;4.40;2.42;;;21.30;99.90;;;;;;4111785;28;20045;-61
2022/07/25 00:59:45;;;;;;;1.98;1.88;;;21.40;99.90;;;;;;4117027;28;20129;-63
2022/07/25 01:01:48;;;;;;;3.35;2.63;;;21.40;99.90;;;;;;4113971;28;20074;-62
2022/07/25 01:03:50;;;;;;;2.92;2.80;;;21.40;99.90;;;;;;4136396;28;20430;-63
2022/07/25 01:05:52;;;;;;;3.13;2.92;;;21.40;99.90;;;;;;4120702;28;20469;-61
2022/07/25 01:07:55;;;;;;;3.20;3.00;;;21.40;99.90;;;;;;4128615;28;20062;-63
2022/07/25 01:09:57;;;;;;;2.28;1.77;;;21.40;99.90;;;;;;4120258;28;20117;-63
2022/07/25 01:12:00;;;;;;;2.33;2.22;;;21.50;99.90;;;;;;4115051;28;20520;-62
2022/07/25 01:14:03;;;;;;;3.40;3.20;;;21.30;99.90;;;;;;4118523;28;20073;-63
2022/07/25 01:16:06;;;;;;;4.60;2.78;;;21.10;99.90;;;;;;4118531;28;20049;-62
2022/07/25 01:18:08;;;;;;;3.38;3.17;;;20.80;99.90;;;;;;4115193;28;20565;-63
2022/07/25 01:20:14;;;;;;;3.40;3.28;;;20.60;99.90;;;;;;4120128;28;20407;-62
2022/07/25 01:22:16;;;;;;;4.72;2.40;;;20.50;99.90;;;;;;4121486;28;20566;-62
2022/07/25 01:24:18;;;;;;;3.88;3.58;;;20.50;99.90;;;;;;4121069;28;20038;-62
2022/07/25 01:26:20;;;;;;;;;;;20.60;99.90;;;;;;4123349;28;20046;-63
2022/07/25 01:28:22;;;;;;;2.77;2.67;;;20.70;99.90;;;;;;4125002;28;19969;-62
2022/07/25 01:30:24;;;;;;;2.65;2.55;;;20.70;99.90;;;;;;4117356;28;20398;-63
2022/07/25 01:32:27;;;;;;;2.47;2.38;;;20.70;99.90;;;;;;4120477;28;20074;-62
2022/07/25 01:34:29;;;;;;;2.63;2.47;;;20.60;99.90;;;;;;4112868;28;20031;-62
2022/07/25 01:36:31;;;;;;;2.90;2.70;;;20.50;99.90;;;;;;4112988;28;20043;-63
2022/07/25 01:38:33;;;;;;;2.85;2.75;;;20.50;99.90;;;;;;4120956;28;20030;-62
2022/07/25 01:40:35;;;;;;;2.75;2.40;;;20.50;99.90;;;;;;4115806;28;20050;-62
2022/07/25 01:42:37;;;;;;;2.92;2.72;;;20.70;99.90;;;;;;4127301;28;20125;-63
2022/07/25 01:44:39;;;;;;;2.70;2.60;;;20.70;99.90;;;;;;4114691;28;20109;-63
2022/07/25 01:46:41;;;;;;;3.35;3.03;;;20.70;99.90;;;;;;4112432;28;20517;-63
2022/07/25 01:48:43;;;;;;;2.80;2.65;;;20.70;99.90;;;;;;4122959;28;20429;-60
2022/07/25 01:50:45;;;;;;;;;;;20.60;99.90;;;;;;4124102;28;20471;-62
2022/07/25 01:52:48;;;;;;;3.50;3.37;;;20.40;99.90;;;;;;4126859;28;20350;-63
2022/07/25 01:54:50;;;;;;;3.10;2.67;;;20.20;99.90;;;;;;4127982;28;20106;-60
2022/07/25 01:56:52;;;;;;;2.88;2.78;;;20.10;99.90;;;;;;4123629;28;20568;-63
2022/07/25 01:58:54;;;;;;;5.15;3.47;;;20.30;99.90;;;;;;4114361;28;20046;-63
2022/07/25 02:00:56;;;;;;;3.67;2.65;;;20.30;99.90;;;;;;4125314;28;20046;-63
2022/07/25 02:05:19;;;;;;;3.97;3.67;;;20.40;99.90;;;;;;4113419;28;20618;-63
2022/07/25 02:07:21;;;;;;;3.53;3.22;;;20.30;99.90;;;;;;4117528;28;20030;-63
2022/07/25 02:09:23;;;;;;;;;;;20.30;99.90;;;;;;4119441;28;20371;-63
2022/07/25 02:11:25;;;;;;;2.40;2.30;;;20.40;99.90;;;;;;4128470;28;20287;-63
2022/07/25 02:13:27;;;;;;;3.10;3.00;;;20.20;99.90;;;;;;4113790;28;20172;-63
2022/07/25 02:15:30;;;;;;;2.65;2.55;;;20.10;99.90;;;;;;4112375;28;20034;-62
2022/07/25 02:17:32;;;;;;;3.83;3.53;;;20.00;99.90;;;;;;4123822;28;20683;-62
2022/07/25 02:19:34;;;;;;;2.88;2.67;;;19.90;99.90;;;;;;4127333;28;20466;-63
2022/07/25 02:21:36;;;;;;;3.28;3.05;;;19.90;99.90;;;;;;4120708;28;20133;-61
2022/07/25 02:23:39;;;;;;;3.60;3.50;;;19.90;99.90;;;;;;4125088;28;20045;-63
2022/07/25 02:25:41;;;;;;;3.67;3.25;;;19.80;99.90;;;;;;4128396;28;20078;-63
2022/07/25 02:27:43;;;;;;;3.40;3.17;;;19.70;99.90;;;;;;4115454;28;20499;-62
2022/07/25 02:29:45;;;;;;;4.15;4.05;;;19.80;99.90;;;;;;4112476;28;20038;-62
2022/07/25 02:31:48;;;;;;;3.92;3.83;;;19.80;99.90;;;;;;4120331;28;20150;-62
2022/07/25 02:33:50;;;;;;;3.47;3.28;;;19.90;99.90;;;;;;4114012;28;20043;-60
2022/07/25 02:35:52;;;;;;;3.13;2.85;;;19.80;99.90;;;;;;4117327;28;20287;-62
2022/07/25 02:37:54;;;;;;;3.60;3.42;;;19.90;99.90;;;;;;4113118;28;20093;-62
2022/07/25 02:39:56;;;;;;;6.60;3.80;;;19.80;99.90;;;;;;4123320;28;20450;-62
2022/07/25 02:41:58;;;;;;;2.85;2.67;;;19.70;99.90;;;;;;4119337;28;20046;-62
2022/07/25 02:44:00;;;;;;;3.30;3.17;;;19.80;99.90;;;;;;4115678;28;20042;-62
2022/07/25 02:46:02;;;;;;;3.38;3.17;;;19.60;99.90;;;;;;4113505;28;20051;-63
2022/07/25 02:48:04;;;;;;;;;;;19.60;99.90;;;;;;4112686;28;20068;-61
2022/07/25 02:50:07;;;;;;;3.28;3.17;;;19.60;99.90;;;;;;4120282;28;20440;-61
2022/07/25 02:52:15;;;;;;;4.00;3.70;;;19.60;99.90;;;;;;4119431;28;20554;-63
2022/07/25 02:54:18;;;;;;;4.20;3.88;;;19.50;99.90;;;;;;4113253;28;20516;-62
2022/07/25 02:56:21;;;;;;;3.58;3.38;;;19.60;99.90;;;;;;4112016;28;20118;-63
2022/07/25 02:58:24;;;;;;;3.47;3.28;;;19.50;99.90;;;;;;4117873;28;20046;-63
2022/07/25 03:00:26;;;;;;;4.28;4.03;;;19.50;99.90;;;;;;4112136;28;20047;-62
2022/07/25 03:02:28;;;;;;;3.70;3.20;;;19.50;99.90;;;;;;4119545;28;20453;-63
2022/07/25 03:04:30;;;;;;;3.83;3.55;;;19.60;99.90;;;;;;4124906;28;20363;-62
2022/07/25 03:06:32;;;;;;;3.63;3.53;;;19.50;99.90;;;;;;4126316;28;20399;-63
2022/07/25 03:08:34;;;;;;;3.83;3.63;;;19.30;99.90;;;;;;4122184;28;20034;-62
2022/07/25 03:10:36;;;;;;;3.72;3.63;;;19.30;99.90;;;;;;4121351;28;20038;-61
2022/07/25 03:12:39;;;;;;;3.72;3.53;;;19.40;99.90;;;;;;4120026;28;20060;-63
2022/07/25 03:14:41;;;;;;;4.05;3.85;;;19.40;99.90;;;;;;4111537;28;20102;-62
2022/07/25 03:16:43;;;;;;;4.03;3.80;;;19.30;99.90;;;;;;4112324;28;20085;-61
2022/07/25 03:18:46;;;;;;;3.85;3.50;;;19.20;99.90;;;;;;4121780;28;20145;-63
2022/07/25 03:20:48;;;;;;;9.90;4.38;;;19.10;99.90;;;;;;4120359;28;20046;-62
2022/07/25 03:22:50;;;;;;;4.88;4.55;;;19.20;99.90;;;;;;4125982;28;20042;-63
2022/07/25 03:24:54;;;;;;;3.53;3.33;;;19.10;99.90;;;;;;4125154;28;20089;-63
2022/07/25 03:26:56;;;;;;;3.85;3.67;;;19.10;99.90;;;;;;4126144;28;20057;-63
2022/07/25 03:28:58;;;;;;;3.47;3.38;;;19.20;99.90;;;;;;4114043;28;20159;-63
2022/07/25 03:31:01;;;;;;;3.72;3.63;;;19.20;99.90;;;;;;4122196;28;20073;-63
2022/07/25 03:33:03;;;;;;;4.72;4.05;;;19.20;99.90;;;;;;4118838;28;20039;-63
2022/07/25 03:35:06;;;;;;;4.40;4.20;;;19.20;99.90;;;;;;4117383;28;20046;-63
2022/07/25 03:37:08;;;;;;;3.03;2.85;;;19.30;99.90;;;;;;4111045;28;20410;-63
2022/07/25 03:39:10;;;;;;;4.82;4.53;;;19.30;99.90;;;;;;4112642;28;20487;-63
2022/07/25 03:41:12;;;;;;;3.85;3.65;;;19.20;99.90;;;;;;4116691;28;20472;-61
2022/07/25 03:43:15;;;;;;;;;;;18.90;99.90;;;;;;4116651;28;20043;-62
2022/07/25 03:45:17;;;;;;;5.50;5.30;;;18.80;99.90;;;;;;4116614;28;20234;-62
2022/07/25 03:47:18;;;;;;;4.70;4.50;;;18.70;99.90;;;;;;4111841;28;20302;-62
2022/07/25 03:49:21;;;;;;;3.90;3.67;;;18.60;99.90;;;;;;4112985;28;20046;-63
2022/07/25 03:51:24;;;;;;;4.97;4.57;;;18.80;99.90;;;;;;4117114;28;20451;-63
2022/07/25 03:53:26;;;;;;;5.25;4.13;;;18.90;99.90;;;;;;4113478;28;20046;-63
2022/07/25 03:55:28;;;;;;;4.05;3.85;;;19.00;99.90;;;;;;4112385;28;20093;-63
2022/07/25 03:57:30;;;;;;;4.07;3.78;;;19.00;99.90;;;;;;4113323;28;20045;-63
2022/07/25 03:59:32;;;;;;;4.40;4.18;;;19.00;99.90;;;;;;4118897;28;20043;-62
2022/07/25 04:01:34;;;;;;;5.10;4.70;;;19.00;99.90;;;;;;4112028;28;20042;-63
2022/07/25 04:03:37;;;;;;;5.43;3.92;;;18.90;99.90;;;;;;4116688;28;20779;-63
2022/07/25 04:05:39;;;;;;;4.40;4.15;;;18.80;99.90;;;;;;4124507;28;20035;-60
2022/07/25 04:07:47;;;;;;;5.30;4.88;;;18.70;99.90;;;;;;4118767;28;20616;-63
2022/07/25 04:09:49;;;;;;;3.95;3.75;;;18.70;99.90;;;;;;4118318;28;20059;-63
2022/07/25 04:11:52;;;;;;;5.10;4.80;;;18.60;99.90;;;;;;4120483;28;20063;-63
2022/07/25 04:13:54;;;;;;;4.07;3.78;;;18.60;99.90;;;;;;4114241;28;20058;-62
2022/07/25 04:15:56;;;;;;;4.50;4.20;;;18.50;99.90;;;;;;4114517;28;20292;-63
2022/07/25 04:17:58;;;;;;;4.47;4.30;;;18.50;99.90;;;;;;4118707;28;20043;-61
2022/07/25 04:20:01;;;;;;;4.45;4.05;;;18.40;99.90;;;;;;4114558;28;20039;-63
2022/07/25 04:22:06;;;;;;;4.85;4.75;;;18.40;99.90;;;;;;4114505;28;20121;-63
2022/07/25 04:24:08;;;;;;;4.75;4.55;;;18.60;99.90;;;;;;4126707;28;20540;-63
2022/07/25 04:26:10;;;;;;;;;;;18.70;99.90;;;;;;4122305;28;20038;-63
2022/07/25 04:28:13;;;;;;;5.22;5.00;;;18.70;99.90;;;;;;4118557;28;19926;-63
2022/07/25 04:30:15;;;;;;;4.28;4.05;;;18.60;99.90;;;;;;4123045;28;20161;-63
2022/07/25 04:32:25;;;;;;;4.70;4.50;;;18.50;99.90;;;;;;4125065;28;20125;-63
2022/07/25 04:34:27;;;;;;;5.88;5.57;;;18.50;99.90;;;;;;4124983;28;20070;-63
2022/07/25 04:36:30;;;;;;;5.88;4.53;;;18.50;99.90;;;;;;4119883;28;20111;-63
2022/07/25 04:38:32;;;;;;;3.65;3.55;;;18.40;99.90;;;;;;4122005;28;20043;-63
2022/07/25 04:40:34;;;;;;;4.45;4.13;;;18.40;99.90;;;;;;4120719;28;20046;-62
2022/07/25 04:42:36;;;;;;;4.93;4.68;;;18.40;99.90;;;;;;4119084;28;20630;-63
2022/07/25 04:44:39;;;;;;;4.20;4.10;;;18.50;99.90;;;;;;4114926;28;20039;-63
2022/07/25 04:46:41;;;;;;;4.97;4.57;;;18.60;99.90;;;;;;4127073;28;20078;-63
2022/07/25 04:48:43;;;;;;;5.05;4.72;;;18.60;99.90;;;;;;4129303;28;20560;-63
2022/07/25 04:50:48;;;;;;;4.88;4.57;;;18.50;99.90;;;;;;4128603;28;20066;-63
2022/07/25 04:52:50;;;;;;;6.38;5.82;;;18.60;99.90;;;;;;4118622;28;20038;-63
2022/07/25 04:54:52;;;;;;;5.35;5.15;;;18.60;99.90;;;;;;4123740;28;20043;-63
2022/07/25 04:56:54;;;;;;;6.05;5.85;;;18.60;99.90;;;;;;4114116;28;20043;-63
2022/07/25 04:58:56;;;;;;;5.30;4.85;;;18.60;99.90;;;;;;4114571;28;20054;-63
2022/07/25 05:01:04;;;;;;;5.45;5.05;;;18.70;99.90;;;;;;4114762;28;20034;-63
2022/07/25 05:03:06;;;;;;;;;;;18.70;99.90;;;;;;4116598;28;20394;-63
2022/07/25 05:05:08;;;;;;;4.85;4.75;;;18.70;99.90;;;;;;4120497;28;19925;-63
2022/07/25 05:07:23;;;;;;;6.03;5.30;;;18.70;99.90;;;;;;4129025;28;20045;-63
2022/07/25 05:09:27;;;;;;;5.65;5.35;;;18.60;99.90;;;;;;4121424;28;20042;-63
2022/07/25 05:11:29;;;;;;;;;;;18.60;99.90;;;;;;4128825;28;20076;-63
2022/07/25 05:13:31;;;;;;;5.57;5.38;;;18.70;99.90;;;;;;4117692;28;19921;-64
2022/07/25 05:15:33;;;;;;;6.10;5.80;;;18.80;99.90;;;;;;4120866;28;20031;-64
2022/07/25 05:17:35;;;;;;;5.72;5.32;;;18.80;99.90;;;;;;4118226;28;20065;-63
2022/07/25 05:19:38;;;;;;;5.70;5.43;;;18.90;99.90;;;;;;4117161;28;20061;-64
2022/07/25 05:21:40;;;;;;;5.82;5.40;;;19.00;99.90;;;;;;4116714;28;20133;-64
2022/07/25 05:23:42;;;;;;;6.32;5.93;;;19.10;99.90;;;;;;4114602;28;20035;-63
2022/07/25 05:25:45;;;;;;;5.07;4.30;;;19.20;99.90;;;;;;4118772;28;20046;-60
2022/07/25 05:27:47;;;;;;;6.57;6.10;;;19.20;99.90;;;;;;4123113;28;20494;-64
2022/07/25 05:29:49;;;;;;;5.18;5.05;;;19.20;99.90;;;;;;4114496;28;20042;-64
2022/07/25 05:31:51;;;;;;;;;;;19.30;99.90;;;;;;4114150;28;20083;-64
2022/07/25 05:33:53;;;;;;;5.32;5.13;;;19.30;99.90;;;;;;4138684;28;19963;-61
2022/07/25 05:35:56;;;;;;;;;;;19.60;99.90;;;;;;4121696;28;20041;-64
2022/07/25 05:37:59;;;;;;;5.07;4.88;;;19.70;99.90;;;;;;4121294;28;19930;-63
2022/07/25 05:40:02;;;;;;;4.82;4.65;;;19.60;99.90;;;;;;4119933;28;20074;-63
2022/07/25 05:42:05;;;;;;;5.20;4.95;;;19.60;99.90;;;;;;4124152;28;20062;-63
2022/07/25 05:44:07;;;;;;;4.93;4.72;;;19.60;99.90;;;;;;4133743;28;20069;-64
2022/07/25 05:46:10;;;;;;;7.18;5.00;;;19.70;99.90;;;;;;4123672;28;20118;-64
2022/07/25 05:48:14;;;;;;;5.45;4.88;;;19.80;99.90;;;;;;4122686;28;20053;-64
2022/07/25 05:50:16;;;;;;;4.57;4.32;;;19.90;99.90;;;;;;4125025;28;20034;-64
2022/07/25 05:52:18;;;;;;;4.68;4.38;;;20.00;99.90;;;;;;4121414;28;20129;-64
2022/07/25 05:54:20;;;;;;;3.80;3.50;;;20.10;99.90;;;;;;4119905;28;20447;-64
2022/07/25 05:56:22;;;;;;;4.45;4.15;;;20.00;99.90;;;;;;4113737;28;20038;-65
2022/07/25 05:58:24;;;;;;;4.90;4.43;;;20.20;99.90;;;;;;4123092;28;20046;-64
2022/07/25 06:00:31;;;;;;;3.90;3.80;;;20.30;99.90;;;;;;4118029;28;20039;-63
2022/07/25 06:02:33;;;;;;;4.68;4.32;;;20.50;99.90;;;;;;4118784;28;20109;-65
2022/07/25 06:04:35;;;;;;;5.30;5.10;;;20.70;99.90;;;;;;4124607;28;20399;-64
2022/07/25 06:06:37;;;;;;;4.82;4.50;;;20.60;99.90;;;;;;4119012;28;20050;-64
2022/07/25 06:08:39;;;;;;;4.32;4.05;;;20.60;99.90;;;;;;4116861;28;20043;-64
2022/07/25 06:10:43;;;;;;;9.48;4.32;;;20.70;99.90;;;;;;4124988;28;20070;-65
2022/07/25 06:12:45;;;;;;;4.22;3.95;;;20.80;99.90;;;;;;4119633;28;20145;-65
2022/07/25 06:14:48;;;;;;;6.20;5.65;;;20.80;99.90;;;;;;4121125;28;20442;-64
2022/07/25 06:16:51;;;;;;;7.38;4.95;;;21.10;99.90;;;;;;4123156;28;20530;-63
2022/07/25 06:18:53;;;;;;;4.65;4.30;;;21.10;99.90;;;;;;4123324;28;20528;-65
2022/07/25 06:20:55;;;;;;;4.75;4.53;;;21.10;99.90;;;;;;4119059;28;20039;-64
2022/07/25 06:22:59;;;;;;;5.30;5.05;;;21.20;99.90;;;;;;4119770;28;20576;-65
2022/07/25 06:25:02;;;;;;;4.35;4.00;;;21.40;99.90;;;;;;4113600;28;20429;-65
2022/07/25 06:27:05;;;;;;;5.35;5.15;;;21.50;99.90;;;;;;4122437;28;20406;-65
2022/07/25 06:29:07;;;;;;;5.00;4.78;;;21.60;99.90;;;;;;4119615;28;20034;-64
2022/07/25 06:31:09;;;;;;;5.55;5.25;;;21.60;99.90;;;;;;4118741;28;20042;-64
2022/07/25 06:33:12;;;;;;;4.65;4.00;;;21.80;99.90;;;;;;4114548;28;20494;-65
2022/07/25 06:35:15;;;;;;;5.22;4.78;;;21.80;99.90;;;;;;4125314;28;20442;-65
2022/07/25 06:37:17;;;;;;;4.97;4.68;;;22.40;99.90;;;;;;4114581;28;20126;-64
2022/07/25 06:39:19;;;;;;;3.83;3.65;;;22.60;99.90;;;;;;4113715;28;20050;-65
2022/07/25 06:41:21;;;;;;;4.50;3.78;;;22.50;99.90;;;;;;4124334;28;20054;-64
2022/07/25 06:43:23;;;;;;;5.28;4.03;;;22.50;99.90;;;;;;4125954;28;20446;-64
2022/07/25 06:45:26;;;;;;;3.65;3.35;;;22.80;99.90;;;;;;4120176;28;20549;-65
2022/07/25 06:47:28;;;;;;;3.45;3.33;;;23.00;99.90;;;;;;4120368;28;20509;-63
2022/07/25 06:49:36;;;;;;;3.97;3.88;;;23.40;99.90;;;;;;4113459;28;20046;-64
2022/07/25 06:51:38;;;;;;;;;;;23.40;99.90;;;;;;4128531;28;20050;-65
2022/07/25 06:53:40;;;;;;;3.13;3.03;;;23.40;99.90;;;;;;4142088;28;20384;-63
2022/07/25 06:55:42;;;;;;;3.10;2.85;;;23.20;99.90;;;;;;4128395;28;20082;-64
2022/07/25 06:57:44;;;;;;;3.78;3.67;;;23.50;99.90;;;;;;4120861;28;20570;-63
2022/07/25 06:59:46;;;;;;;4.22;3.55;;;23.50;99.90;;;;;;4112160;28;20072;-63
2022/07/25 07:01:49;;;;;;;6.78;3.20;;;24.00;99.90;;;;;;4126550;28;20042;-64
2022/07/25 07:03:52;;;;;;;3.88;3.63;;;24.00;99.90;;;;;;4122799;28;20085;-64
2022/07/25 07:05:54;;;;;;;;;;;24.00;99.90;;;;;;4112682;28;20078;-63
2022/07/25 07:07:57;;;;;;;5.00;4.67;;;24.10;99.90;;;;;;4124407;28;19929;-65
2022/07/25 07:10:00;;;;;;;3.75;3.55;;;24.10;99.90;;;;;;4127718;28;20069;-63
2022/07/25 07:12:02;;;;;;;4.10;2.42;;;24.30;99.90;;;;;;4127914;28;20466;-64
2022/07/25 07:14:04;;;;;;;;;;;24.40;99.90;;;;;;4128231;28;20482;-65
2022/07/25 07:16:06;;;;;;;3.42;3.33;;;24.60;99.90;;;;;;4126773;28;19922;-64
2022/07/25 07:18:08;;;;;;;3.25;2.70;;;24.80;99.90;;;;;;4121992;28;20073;-64
2022/07/25 07:20:11;;;;;;;2.78;2.67;;;24.90;99.90;;;;;;4126307;28;20081;-62
2022/07/25 07:22:14;;;;;;;3.60;2.50;;;25.50;99.90;;;;;;4126164;28;20042;-65
2022/07/25 07:24:17;;;;;;;2.75;2.65;;;25.60;99.90;;;;;;4128007;28;20101;-65
2022/07/25 07:26:25;;;;;;;2.20;2.00;;;25.60;99.90;;;;;;4120787;28;20129;-64
2022/07/25 07:28:27;;;;;;;4.50;2.28;;;26.00;99.90;;;;;;4111942;28;20451;-65
2022/07/25 07:30:29;;;;;;;2.53;2.42;;;26.30;99.90;;;;;;4125806;28;20247;-65
2022/07/25 07:32:51;;;;;;;3.15;2.90;;;26.10;99.90;;;;;;4120651;28;20030;-64
2022/07/25 07:34:53;;;;;;;6.75;2.17;;;26.30;99.90;;;;;;4111881;28;20077;-65
2022/07/25 07:36:55;;;;;;;2.28;2.17;;;26.30;99.90;;;;;;4126304;28;20101;-65
2022/07/25 07:38:57;;;;;;;;;;;26.50;99.90;;;;;;4122803;28;20061;-66
2022/07/25 07:40:59;;;;;;;2.03;1.92;;;26.50;99.90;;;;;;4111603;28;20366;-64
2022/07/25 07:43:02;;;;;;;2.70;2.28;;;26.90;99.90;;;;;;4123966;28;20042;-65
2022/07/25 07:45:14;;;;;;;3.92;1.88;;;26.60;99.90;;;;;;4130718;28;20049;-64
2022/07/25 07:47:16;;;;;;;2.83;2.63;;;26.80;99.90;;;;;;4131134;28;20069;-65
2022/07/25 07:49:18;;;;;;;2.63;2.53;;;26.80;99.90;;;;;;4120501;28;20402;-64
2022/07/25 07:51:20;;;;;;;2.65;2.55;;;27.10;99.90;;;;;;4131017;28;20042;-64
2022/07/25 07:55:42;;;;;;;;;;;26.90;99.90;;;;;;4131415;28;20509;-64
2022/07/25 07:55:44;;;;;;;3.70;2.10;;;26.90;99.90;;;;;;4117657;28;19922;-65
2022/07/25 07:57:46;;;;;;;1.75;1.70;;;27.50;99.90;;;;;;4117453;28;20101;-65
2022/07/25 07:59:48;;;;;;;;;;;28.20;99.90;;;;;;4131608;28;20074;-65
2022/07/25 08:01:50;;;;;;;2.65;2.45;;;28.20;99.90;;;;;;4121474;28;19930;-63
2022/07/25 08:03:52;;;;;;;;;;;28.20;99.60;;;;;;4115300;28;20046;-64
2022/07/25 08:05:54;;;;;;;2.67;2.28;;;28.40;99.50;;;;;;4131101;28;20432;-64
2022/07/25 08:07:57;;;;;;;2.92;1.80;;;28.70;99.90;;;;;;4130507;28;20073;-64
2022/07/25 08:09:59;;;;;;;6.63;1.92;;;28.60;98.50;;;;;;4130823;28;20405;-64
2022/07/25 08:12:00;;;;;;;;;;;28.30;99.00;;;;;;4127685;28;20834;-63
2022/07/25 08:14:04;;;;;;;4.63;1.52;;;28.60;99.90;;;;;;4125337;28;19977;-66
2022/07/25 08:16:06;;;;;;;3.03;2.10;;;28.50;99.50;;;;;;4129163;28;20061;-64
2022/07/25 08:18:09;;;;;;;2.90;1.98;;;28.50;99.90;;;;;;4130153;28;20046;-65
2022/07/25 08:20:23;;;;;;;2.47;2.30;;;29.20;99.90;;;;;;4130927;28;20066;-65
2022/07/25 08:22:46;;;;;;;1.92;1.55;;;29.40;99.20;;;;;;4130872;28;20054;-63
2022/07/25 08:24:48;;;;;;;2.75;2.00;;;29.20;98.70;;;;;;4115442;28;20569;-65
2022/07/25 08:26:49;;;;;;;;;;;29.30;97.50;;;;;;4120448;28;20165;-64
2022/07/25 08:28:52;;;;;;;2.80;1.80;;;29.30;98.10;;;;;;4130788;28;19925;-64
2022/07/25 08:31:14;;;;;;;6.28;2.00;;;29.20;97.60;;;;;;4115140;28;20407;-65
2022/07/25 08:33:16;;;;;;;2.85;1.40;;;29.40;99.00;;;;;;4120052;28;20034;-65
2022/07/25 08:35:20;;;;;;;3.55;1.42;;;30.00;97.20;;;;;;4130298;28;20078;-64
2022/07/25 08:37:23;;;;;;;1.92;1.30;;;30.00;97.90;;;;;;4117317;28;20046;-64
2022/07/25 08:39:25;;;;;;;2.15;1.60;;;30.00;96.70;;;;;;4118627;28;20053;-64
2022/07/25 08:41:28;;;;;;;3.22;1.33;;;29.90;96.10;;;;;;4130103;28;20056;-65
2022/07/25 08:43:34;;;;;;;2.90;1.40;;;29.90;96.60;;;;;;4125078;28;20125;-64
2022/07/25 08:45:42;;;;;;;2.83;1.42;;;30.20;97.10;;;;;;4130057;28;20338;-65
2022/07/25 08:47:46;;;;;;;2.67;1.23;;;30.70;96.80;;;;;;4130642;28;20046;-65
2022/07/25 08:49:50;;;;;;;3.08;1.15;;;31.00;96.20;;;;;;4124591;28;20050;-63
2022/07/25 08:51:52;;;;;;;1.70;1.60;;;31.00;95.70;;;;;;4130114;28;20034;-64
2022/07/25 08:53:54;;;;;;;2.05;1.10;;;30.90;95.20;;;;;;4129267;28;20034;-65
2022/07/25 08:55:56;;;;;;;2.25;1.30;;;31.00;96.30;;;;;;4119042;28;20035;-65
2022/07/25 08:57:59;;;;;;;1.60;1.13;;;31.30;95.50;;;;;;4114156;28;20054;-64
2022/07/25 09:00:03;;;;;;;1.20;1.10;;;31.40;95.20;;;;;;4113929;28;20355;-63
2022/07/25 09:02:07;;;;;;;1.35;1.25;;;31.20;93.60;;;;;;4120946;28;20046;-64
2022/07/25 09:04:09;;;;;;;4.63;1.50;;;31.10;94.00;;;;;;4130056;28;20046;-63
2022/07/25 09:06:20;;;;;;;1.50;1.15;;;31.20;94.10;;;;;;4115546;28;20117;-63
2022/07/25 09:08:23;;;;;;;1.60;1.50;;;31.10;93.40;;;;;;4119334;28;20462;-63
2022/07/25 09:10:26;;;;;;;2.40;1.30;;;31.00;94.40;;;;;;4112577;28;20074;-64
2022/07/25 09:12:28;;;;;;;1.50;1.33;;;31.30;95.10;;;;;;4129218;28;20052;-63
2022/07/25 09:14:43;;;;;;;4.07;1.60;;;31.10;92.90;;;;;;4125787;28;20101;-63
2022/07/25 09:16:45;;;;;;;4.43;1.30;;;31.10;94.30;;;;;;4113533;28;20038;-62
2022/07/25 09:18:48;;;;;;;1.08;1.08;;;31.30;93.50;;;;;;4129242;28;20047;-63
2022/07/25 09:20:59;;;;;;;9.43;1.75;;;31.40;93.70;;;;;;4125798;28;20149;-64
2022/07/25 09:23:01;;;;;;;2.20;1.52;;;31.50;93.50;;;;;;4113353;28;20039;-63
2022/07/25 09:25:03;;;;;;;2.67;1.20;;;31.40;93.10;;;;;;4124101;28;20487;-63
2022/07/25 09:27:09;;;;;;;1.23;1.13;;;31.50;93.10;;;;;;4126924;28;20425;-64
2022/07/25 09:29:19;;;;;;;1.67;1.20;;;31.80;93.20;;;;;;4113623;28;20054;-64
2022/07/25 09:31:30;;;;;;;1.73;1.33;;;32.10;93.90;;;;;;4124526;28;20035;-63
2022/07/25 09:33:32;;;;;;;1.98;1.10;;;31.90;93.30;;;;;;4126549;28;20047;-64
2022/07/25 09:35:40;;;;;;;3.28;0.90;;;32.30;92.70;;;;;;4113716;28;20046;-63
2022/07/25 09:37:42;;;;;;;1.23;1.10;;;32.10;91.80;;;;;;4124302;28;20046;-63
2022/07/25 09:39:50;;;;;;;3.17;1.40;;;31.90;92.10;;;;;;4127558;28;20046;-64
2022/07/25 09:41:52;;;;;;;1.50;1.20;;;32.40;92.20;;;;;;4113476;28;20410;-64
2022/07/25 09:43:54;;;;;;;1.20;1.10;;;32.60;92.70;;;;;;4122983;28;20046;-63
2022/07/25 09:45:57;;;;;;;1.75;1.30;;;32.40;91.00;;;;;;4129587;28;20577;-63
2022/07/25 09:48:03;;;;;;;2.08;0.90;;;32.40;91.50;;;;;;4129063;28;20046;-62
2022/07/25 09:50:05;;;;;;;1.42;1.33;;;32.40;91.80;;;;;;4128912;28;20501;-63
2022/07/25 09:52:09;;;;;;;0.98;0.98;;;32.20;90.70;;;;;;4129402;28;20038;-62
2022/07/25 09:54:11;;;;;;;3.83;1.05;;;32.20;90.80;;;;;;4129045;28;20048;-63
2022/07/25 09:56:13;;;;;;;3.83;1.25;;;32.30;90.90;;;;;;4123093;28;20042;-63
2022/07/25 09:58:15;;;;;;;4.15;1.20;;;32.80;91.20;;;;;;4113165;28;20062;-63
2022/07/25 10:00:22;;;;;;;3.70;1.40;;;32.80;90.40;;;;;;4126155;28;20046;-63
2022/07/25 10:02:44;;;;;;;1.83;1.38;;;33.00;90.00;;;;;;4124478;28;20043;-63
2022/07/25 10:05:03;;;;;;;2.33;1.63;;;32.90;88.90;;;;;;4112957;28;20046;-63
2022/07/25 10:07:08;;;;;;;1.85;1.10;;;32.90;89.70;;;;;;4114894;28;20578;-57
2022/07/25 10:09:14;;;;;;;2.65;1.20;;;32.90;89.80;;;;;;4143513;28;20037;-56
2022/07/25 10:11:22;;;;;;;3.90;1.30;;;33.10;89.70;;;;;;4128720;28;20513;-58
2022/07/25 10:13:33;;;;;;;4.43;0.90;;;33.20;87.00;;;;;;4128687;28;20101;-56
2022/07/25 10:15:52;;;;;;;3.20;1.45;;;33.00;88.00;;;;;;4120952;28;20436;-57
2022/07/25 10:18:05;;;;;;;2.63;0.98;;;33.40;90.00;;;;;;4120440;28;20042;-57
2022/07/25 10:20:09;;;;;;;3.40;1.13;;;33.60;87.40;;;;;;4128672;28;20050;-57
2022/07/25 10:22:11;;;;;;;3.75;1.30;;;33.60;90.30;;;;;;4119017;28;20454;-57
2022/07/25 10:24:13;;;;;;;1.20;1.05;;;34.00;88.70;;;;;;4112957;28;20100;-58
2022/07/25 10:26:15;;;;;;;3.80;1.00;;;33.70;86.20;;;;;;4127376;28;20042;-56
2022/07/25 10:28:19;;;;;;;0.95;0.90;;;33.70;88.20;;;;;;4120955;28;20441;-57
2022/07/25 10:30:23;;;;;;;1.10;1.00;;;33.80;87.20;;;;;;4112571;28;20562;-58
2022/07/25 10:32:34;;;;;;;2.50;1.20;;;33.90;85.10;;;;;;4127758;28;20129;-58
2022/07/25 10:34:37;;;;;;;2.65;1.20;;;33.70;86.50;;;;;;4121729;28;20039;-57
2022/07/25 10:36:47;;;;;;;2.17;0.98;;;33.90;85.50;;;;;;4112562;28;20046;-57
2022/07/25 10:38:56;;;;;;;1.08;1.00;;;33.90;85.20;;;;;;4127788;28;20038;-57
2022/07/25 10:41:02;;;;;;;2.58;1.00;;;34.10;83.70;;;;;;4121804;28;20456;-56
2022/07/25 10:43:18;;;;;;;2.25;1.17;;;33.70;85.30;;;;;;4114625;28;20097;-57
2022/07/25 10:45:24;;;;;;;2.88;1.15;;;33.60;83.00;;;;;;4112445;28;20074;-56
2022/07/25 10:47:28;;;;;;;1.55;0.80;;;33.90;85.40;;;;;;4120551;28;20065;-57
2022/07/25 10:49:36;;;;;;;1.33;0.95;;;34.10;84.60;;;;;;4128145;28;20078;-56